Time;durP1;ratioP1;P1;durP2;ratioP2;P2;SDS_P1;SDS_P2;PMS_P1;PMS_P2;Temp;Humidity;BMP_temperature;BMP_pressure;BME280_temperature;BME280_humidity;BME280_pressure;Samples;Min_cycle;Max_cycle;Signal;HPM_P1;HPM_P2
2022/04/10 00:02:08;;;;;;;21.20;14.50;;;27.50;78.50;;;;;;5148402;27;20015;-57
2022/04/10 00:04:34;;;;;;;19.95;13.43;;;27.40;78.60;;;;;;5147995;27;20039;-56
2022/04/10 00:07:01;;;;;;;22.42;14.30;;;27.40;78.00;;;;;;5148218;27;20094;-54
2022/04/10 00:09:27;;;;;;;20.50;14.32;;;27.40;78.30;;;;;;5148072;27;20052;-55
2022/04/10 00:11:54;;;;;;;20.95;13.63;;;27.40;78.60;;;;;;5147340;27;20248;-54
2022/04/10 00:14:20;;;;;;;20.15;14.50;;;27.40;78.60;;;;;;5123067;27;20220;-53
2022/04/10 00:16:47;;;;;;;28.23;15.30;;;27.30;78.40;;;;;;5144852;27;20091;-57
2022/04/10 00:19:15;;;;;;;19.90;14.02;;;27.30;78.70;;;;;;5146252;27;20061;-64
2022/04/10 00:21:42;;;;;;;23.27;14.75;;;27.40;78.90;;;;;;5146659;27;20077;-59
2022/04/10 00:24:09;;;;;;;17.30;14.15;;;27.40;79.10;;;;;;5147666;27;20342;-59
2022/04/10 00:26:35;;;;;;;20.50;14.10;;;27.40;78.60;;;;;;5146774;27;20031;-57
2022/04/10 00:29:03;;;;;;;18.85;14.27;;;27.40;78.40;;;;;;5146239;27;20061;-61
2022/04/10 00:31:30;;;;;;;23.20;14.32;;;27.40;78.50;;;;;;5147557;27;20237;-64
2022/04/10 00:33:57;;;;;;;20.95;14.90;;;27.40;78.20;;;;;;5147298;27;20053;-63
2022/04/10 00:36:23;;;;;;;19.15;14.68;;;27.40;78.20;;;;;;5147417;27;20072;-63
2022/04/10 00:38:50;;;;;;;20.13;15.10;;;27.40;78.20;;;;;;5145912;27;20366;-64
2022/04/10 00:41:17;;;;;;;18.90;15.40;;;27.40;78.10;;;;;;5146996;27;20034;-59
2022/04/10 00:44:03;;;;;;;18.60;14.43;;;27.50;78.10;;;;;;5147079;27;20338;-60
2022/04/10 00:46:30;;;;;;;19.52;14.07;;;27.40;77.70;;;;;;5147207;27;20027;-61
2022/04/10 00:48:56;;;;;;;18.70;13.75;;;27.40;77.70;;;;;;5147145;27;20030;-59
2022/04/10 00:51:43;;;;;;;16.27;13.98;;;27.40;77.70;;;;;;5147002;27;20035;-59
2022/04/10 00:54:31;;;;;;;19.70;13.75;;;27.40;77.80;;;;;;5146778;27;20061;-60
2022/04/10 00:57:00;;;;;;;23.60;13.85;;;27.40;77.70;;;;;;5146864;27;20322;-62
2022/04/10 00:59:30;;;;;;;18.00;13.30;;;27.40;77.70;;;;;;5146726;27;20038;-62
2022/04/10 01:01:57;;;;;;;19.33;13.13;;;27.40;77.50;;;;;;5146831;27;20255;-63
2022/04/10 01:04:23;;;;;;;21.13;13.30;;;27.40;77.40;;;;;;5147050;27;20035;-63
2022/04/10 01:06:51;;;;;;;16.13;13.10;;;27.40;77.30;;;;;;5146754;27;20027;-62
2022/04/10 01:09:20;;;;;;;19.65;13.13;;;27.40;77.30;;;;;;5146549;27;20019;-61
2022/04/10 01:11:48;;;;;;;15.73;12.77;;;27.40;77.50;;;;;;5146972;27;20054;-62
2022/04/10 01:14:15;;;;;;;24.05;14.05;;;27.30;77.50;;;;;;5146708;27;20026;-62
2022/04/10 01:16:42;;;;;;;20.17;13.35;;;27.40;77.70;;;;;;5146736;27;20019;-59
2022/04/10 01:19:11;;;;;;;18.85;14.13;;;27.30;77.40;;;;;;5146825;27;20031;-58
2022/04/10 01:21:44;;;;;;;17.42;13.65;;;27.30;77.50;;;;;;5146649;27;20331;-59
2022/04/10 01:24:16;;;;;;;22.45;12.63;;;27.30;77.50;;;;;;5146651;27;20294;-58
2022/04/10 01:26:44;;;;;;;19.70;12.88;;;27.30;77.20;;;;;;5134022;27;20094;-56
2022/04/10 01:29:15;;;;;;;19.52;13.18;;;27.30;77.20;;;;;;5129942;27;20345;-56
2022/04/10 01:31:47;;;;;;;16.70;12.48;;;27.30;77.00;;;;;;5134886;27;20055;-53
2022/04/10 01:34:16;;;;;;;16.33;12.70;;;27.30;77.20;;;;;;5127635;27;20031;-58
2022/04/10 01:36:44;;;;;;;22.15;13.52;;;27.30;77.30;;;;;;5128655;27;20090;-55
2022/04/10 01:39:12;;;;;;;22.38;14.38;;;27.30;77.30;;;;;;5125009;28;20020;-53
2022/04/10 01:41:39;;;;;;;22.70;14.13;;;27.30;77.60;;;;;;5125542;28;20383;-53
2022/04/10 01:44:07;;;;;;;17.38;12.75;;;27.30;77.60;;;;;;5125517;28;20063;-59
2022/04/10 01:46:35;;;;;;;17.42;13.88;;;27.30;77.40;;;;;;5125446;28;20016;-57
2022/04/10 01:49:04;;;;;;;18.55;13.20;;;27.30;77.10;;;;;;5125589;28;20410;-55
2022/04/10 01:51:32;;;;;;;18.38;13.45;;;27.30;77.40;;;;;;5125366;28;20382;-53
2022/04/10 01:54:02;;;;;;;18.42;13.70;;;27.30;77.30;;;;;;5125274;28;20043;-52
2022/04/10 01:56:30;;;;;;;16.52;13.35;;;27.30;77.10;;;;;;5125256;28;20027;-56
2022/04/10 01:58:58;;;;;;;14.63;13.20;;;27.30;77.00;;;;;;5125275;27;20031;-52
2022/04/10 02:01:24;;;;;;;18.50;13.68;;;27.30;77.00;;;;;;5125125;28;20020;-52
2022/04/10 02:03:53;;;;;;;20.63;14.07;;;27.30;77.10;;;;;;5125321;28;20316;-53
2022/04/10 02:06:19;;;;;;;17.15;14.00;;;27.30;77.20;;;;;;5127499;27;21872;-51
2022/04/10 02:08:48;;;;;;;20.75;14.48;;;27.30;77.30;;;;;;5135130;27;20310;-53
2022/04/10 02:11:19;;;;;;;20.80;14.30;;;27.20;77.40;;;;;;5134830;27;20027;-52
2022/04/10 02:13:46;;;;;;;17.73;13.82;;;27.20;77.20;;;;;;5136074;27;20042;-53
2022/04/10 02:16:15;;;;;;;17.25;13.00;;;27.20;77.00;;;;;;5134683;27;20320;-55
2022/04/10 02:18:42;;;;;;;17.95;13.15;;;27.20;76.80;;;;;;5133410;27;20262;-53
2022/04/10 02:21:10;;;;;;;15.95;13.27;;;27.20;76.70;;;;;;5130238;27;20047;-53
2022/04/10 02:23:37;;;;;;;17.80;12.85;;;27.20;77.00;;;;;;5135235;27;20353;-54
2022/04/10 02:26:05;;;;;;;21.02;12.77;;;27.20;76.70;;;;;;5124905;28;20044;-53
2022/04/10 02:28:31;;;;;;;15.82;12.27;;;27.20;76.70;;;;;;5125280;28;20015;-54
2022/04/10 02:30:58;;;;;;;22.67;13.45;;;27.20;76.60;;;;;;5132812;27;20036;-54
2022/04/10 02:33:25;;;;;;;22.02;13.10;;;27.20;76.60;;;;;;5131792;27;20319;-53
2022/04/10 02:35:51;;;;;;;20.50;12.50;;;27.20;76.40;;;;;;5134248;27;20141;-57
2022/04/10 02:38:19;;;;;;;18.45;12.85;;;27.20;76.70;;;;;;5138250;27;20007;-52
2022/04/10 02:40:46;;;;;;;13.90;12.40;;;27.20;76.60;;;;;;5132927;27;20038;-53
2022/04/10 02:43:14;;;;;;;18.73;12.90;;;27.20;76.90;;;;;;5125071;28;20027;-56
2022/04/10 02:45:43;;;;;;;18.63;12.50;;;27.20;76.90;;;;;;5130445;27;20023;-57
2022/04/10 02:48:10;;;;;;;15.15;12.13;;;27.20;76.80;;;;;;5138644;27;20048;-52
2022/04/10 02:50:38;;;;;;;17.83;12.52;;;27.20;76.40;;;;;;5125776;28;20042;-54
2022/04/10 02:55:58;;;;;;;16.10;12.95;;;27.20;76.70;;;;;;5124609;28;20099;-52
2022/04/10 02:58:26;;;;;;;23.55;17.40;;;27.20;76.70;;;;;;5124731;28;20088;-53
2022/04/10 03:00:52;;;;;;;23.52;17.98;;;27.10;76.60;;;;;;5106385;28;20027;-51
2022/04/10 03:03:20;;;;;;;21.73;16.52;;;27.10;76.60;;;;;;5124795;28;20015;-55
2022/04/10 03:05:47;;;;;;;18.50;14.20;;;27.20;76.70;;;;;;5124245;28;20028;-53
2022/04/10 03:08:13;;;;;;;19.52;14.40;;;27.10;76.50;;;;;;5124213;28;20091;-53
2022/04/10 03:10:40;;;;;;;17.13;13.38;;;27.10;76.40;;;;;;5124317;28;20212;-52
2022/04/10 03:13:07;;;;;;;15.95;13.60;;;27.10;76.40;;;;;;5125835;28;20177;-52
2022/04/10 03:15:33;;;;;;;19.40;13.05;;;27.10;76.40;;;;;;5138271;28;20030;-52
2022/04/10 03:18:01;;;;;;;18.98;14.25;;;27.10;76.30;;;;;;5140085;28;20055;-54
2022/04/10 03:23:20;;;;;;;17.05;12.75;;;27.10;76.30;;;;;;5145284;28;20327;-52
2022/04/10 03:25:46;;;;;;;17.35;13.50;;;27.10;76.30;;;;;;5135311;28;20035;-56
2022/04/10 03:28:13;;;;;;;15.05;13.13;;;27.10;76.30;;;;;;5124498;28;20028;-53
2022/04/10 03:30:41;;;;;;;16.85;12.40;;;27.10;76.30;;;;;;5124867;28;20087;-53
2022/04/10 03:33:07;;;;;;;17.38;12.13;;;27.10;76.00;;;;;;5128489;28;20024;-52
2022/04/10 03:35:34;;;;;;;19.75;13.00;;;27.10;75.90;;;;;;5128122;28;20073;-52
2022/04/10 03:38:00;;;;;;;16.88;12.80;;;27.10;76.00;;;;;;5128441;28;20043;-52
2022/04/10 03:40:27;;;;;;;18.23;13.13;;;27.10;76.10;;;;;;5127944;28;20100;-55
2022/04/10 03:42:54;;;;;;;18.60;12.43;;;27.10;76.00;;;;;;5128483;28;20200;-50
2022/04/10 03:45:20;;;;;;;19.83;12.60;;;27.10;76.10;;;;;;5128003;28;20031;-53
2022/04/10 03:47:49;;;;;;;16.42;12.13;;;27.10;76.00;;;;;;5128023;28;20024;-53
2022/04/10 03:50:16;;;;;;;16.98;12.68;;;27.10;75.90;;;;;;5127947;28;20023;-53
2022/04/10 03:52:43;;;;;;;15.35;11.65;;;27.10;75.60;;;;;;5127637;28;20039;-55
2022/04/10 03:55:10;;;;;;;15.63;12.10;;;27.10;75.90;;;;;;5137858;27;20362;-52
2022/04/10 03:57:36;;;;;;;14.68;11.27;;;27.10;75.80;;;;;;5147738;27;20039;-53
2022/04/10 04:00:03;;;;;;;18.45;13.82;;;27.10;75.80;;;;;;5129955;27;20023;-53
2022/04/10 04:02:30;;;;;;;15.70;13.52;;;27.10;76.00;;;;;;5148371;27;20030;-58
2022/04/10 04:04:57;;;;;;;13.75;12.32;;;27.10;75.90;;;;;;5142369;27;20375;-53
2022/04/10 04:07:24;;;;;;;14.65;12.50;;;27.10;76.00;;;;;;5127714;28;20031;-53
2022/04/10 04:09:50;;;;;;;19.20;13.07;;;27.00;75.90;;;;;;5127360;28;20069;-53
2022/04/10 04:12:17;;;;;;;16.45;12.88;;;27.00;76.00;;;;;;5127622;28;20015;-53
2022/04/10 04:14:43;;;;;;;17.17;12.40;;;27.00;76.00;;;;;;5127462;28;20016;-59
2022/04/10 04:17:10;;;;;;;16.73;12.32;;;27.00;76.10;;;;;;5127448;28;20061;-60
2022/04/10 04:19:37;;;;;;;15.50;12.55;;;27.00;76.20;;;;;;5127291;28;20058;-55
2022/04/10 04:22:03;;;;;;;18.63;12.32;;;27.00;76.20;;;;;;5127426;28;20026;-52
2022/04/10 04:24:30;;;;;;;15.00;12.07;;;27.00;76.20;;;;;;5127116;28;20043;-51
2022/04/10 04:26:57;;;;;;;16.85;12.35;;;27.00;76.20;;;;;;5127211;28;20102;-53
2022/04/10 04:29:23;;;;;;;19.20;12.10;;;27.00;76.10;;;;;;5127164;28;20020;-54
2022/04/10 04:31:50;;;;;;;16.13;12.35;;;27.10;76.20;;;;;;5127151;28;20028;-57
2022/04/10 04:34:17;;;;;;;16.02;11.85;;;27.10;76.30;;;;;;5127007;28;20040;-58
2022/04/10 04:36:44;;;;;;;17.70;11.95;;;27.00;76.00;;;;;;5108820;28;20027;-53
2022/04/10 04:39:10;;;;;;;17.83;11.90;;;27.00;76.10;;;;;;5126890;28;20043;-55
2022/04/10 04:41:37;;;;;;;17.00;12.20;;;27.00;76.20;;;;;;5126763;28;20028;-51
2022/04/10 04:44:04;;;;;;;18.27;12.20;;;27.00;76.00;;;;;;5126873;27;20024;-53
2022/04/10 04:46:30;;;;;;;18.27;12.27;;;27.00;76.00;;;;;;5134728;27;20032;-54
2022/04/10 04:48:57;;;;;;;15.70;12.13;;;27.00;76.40;;;;;;5126729;28;20038;-53
2022/04/10 04:51:24;;;;;;;17.00;11.93;;;26.90;76.40;;;;;;5126557;28;20118;-53
2022/04/10 04:53:53;;;;;;;15.38;11.80;;;26.90;76.40;;;;;;5126543;28;20043;-53
2022/04/10 04:56:19;;;;;;;17.98;11.77;;;26.90;76.40;;;;;;5126472;28;20028;-55
2022/04/10 04:58:47;;;;;;;18.52;12.05;;;26.90;76.60;;;;;;5126545;28;20031;-53
2022/04/10 05:01:14;;;;;;;14.05;12.10;;;26.90;76.80;;;;;;5126324;28;20091;-53
2022/04/10 05:03:41;;;;;;;17.05;12.05;;;26.90;76.80;;;;;;5126465;28;20055;-55
2022/04/10 05:06:07;;;;;;;16.20;12.20;;;26.90;76.70;;;;;;5126531;28;20344;-54
2022/04/10 05:11:26;;;;;;;15.60;12.07;;;26.90;76.60;;;;;;5126391;28;20031;-57
2022/04/10 05:13:52;;;;;;;19.88;12.25;;;26.90;77.00;;;;;;5126264;28;20231;-54
2022/04/10 05:16:19;;;;;;;20.27;13.20;;;26.80;77.00;;;;;;5126087;28;20027;-55
2022/04/10 05:18:47;;;;;;;14.90;12.40;;;26.80;76.90;;;;;;5126271;28;20020;-54
2022/04/10 05:21:13;;;;;;;17.13;12.63;;;26.80;77.10;;;;;;5126071;28;20032;-55
2022/04/10 05:23:40;;;;;;;16.70;12.38;;;26.80;77.40;;;;;;5126302;28;20047;-54
2022/04/10 05:26:07;;;;;;;18.45;12.60;;;26.80;77.40;;;;;;5125915;28;20015;-54
2022/04/10 05:28:34;;;;;;;17.80;12.32;;;26.80;77.80;;;;;;5126489;28;20027;-57
2022/04/10 05:31:04;;;;;;;18.35;12.88;;;26.80;77.70;;;;;;5135818;27;20045;-56
2022/04/10 05:33:35;;;;;;;20.60;12.02;;;26.80;77.70;;;;;;5147015;27;20022;-49
2022/04/10 05:36:01;;;;;;;16.50;12.73;;;26.80;77.80;;;;;;5146387;27;20208;-48
2022/04/10 05:38:28;;;;;;;18.35;12.90;;;26.70;77.80;;;;;;5146326;27;20020;-45
2022/04/10 05:40:54;;;;;;;21.02;13.15;;;26.70;77.90;;;;;;5146318;27;20354;-52
2022/04/10 05:43:24;;;;;;;18.17;13.45;;;26.70;78.00;;;;;;5146621;27;20034;-49
2022/04/10 05:45:51;;;;;;;17.10;13.70;;;26.70;78.20;;;;;;5146277;27;20268;-56
2022/04/10 05:48:19;;;;;;;17.95;13.00;;;26.70;78.40;;;;;;5146600;27;20042;-54
2022/04/10 05:50:46;;;;;;;21.20;13.10;;;26.70;78.40;;;;;;5145937;27;20066;-55
2022/04/10 05:53:12;;;;;;;16.67;11.85;;;26.70;78.30;;;;;;5146189;27;20043;-53
2022/04/10 05:55:39;;;;;;;19.88;12.98;;;26.60;78.10;;;;;;5146142;27;20023;-52
2022/04/10 05:58:06;;;;;;;16.83;12.75;;;26.70;78.30;;;;;;5146328;27;20322;-50
2022/04/10 06:00:32;;;;;;;19.25;12.68;;;26.70;78.10;;;;;;5145778;27;20030;-51
2022/04/10 06:03:03;;;;;;;18.17;12.60;;;26.60;78.10;;;;;;5146360;27;20019;-57
2022/04/10 06:05:30;;;;;;;19.02;12.55;;;26.70;78.00;;;;;;5145865;27;20342;-57
2022/04/10 06:07:57;;;;;;;17.05;12.73;;;26.60;78.00;;;;;;5146210;27;20379;-54
2022/04/10 06:10:24;;;;;;;19.13;12.45;;;26.70;77.90;;;;;;5145722;27;20077;-52
2022/04/10 06:12:50;;;;;;;18.15;11.93;;;26.70;78.00;;;;;;5146120;27;20051;-57
2022/04/10 06:15:21;;;;;;;16.63;12.95;;;26.60;77.90;;;;;;5145638;27;20022;-53
2022/04/10 06:17:48;;;;;;;16.83;12.38;;;26.60;77.90;;;;;;5145890;27;20255;-54
2022/04/10 06:20:14;;;;;;;15.88;12.00;;;26.60;77.90;;;;;;5145365;27;20035;-56
2022/04/10 06:22:41;;;;;;;17.92;12.55;;;26.60;77.90;;;;;;5145487;27;20376;-55
2022/04/10 06:25:09;;;;;;;16.02;12.05;;;26.70;78.10;;;;;;5145473;27;20263;-53
2022/04/10 06:27:35;;;;;;;18.83;13.02;;;26.60;78.00;;;;;;5145606;27;20309;-58
2022/04/10 06:30:02;;;;;;;18.30;13.30;;;26.60;78.10;;;;;;5145402;27;20211;-55
2022/04/10 06:32:28;;;;;;;19.42;13.73;;;26.60;78.40;;;;;;5145709;27;20015;-53
2022/04/10 06:34:55;;;;;;;21.95;15.68;;;26.60;78.20;;;;;;5145340;27;20035;-54
2022/04/10 06:37:22;;;;;;;25.33;17.67;;;26.60;78.30;;;;;;5145358;27;20027;-52
2022/04/10 06:39:48;;;;;;;22.02;18.73;;;26.60;78.30;;;;;;5145318;27;20026;-55
2022/04/10 06:42:15;;;;;;;22.02;18.45;;;26.60;78.40;;;;;;5145489;27;20337;-53
2022/04/10 06:44:42;;;;;;;32.88;24.65;;;26.60;78.50;;;;;;5145087;27;20058;-55
2022/04/10 06:47:08;;;;;;;38.23;31.17;;;26.60;78.80;;;;;;5145341;27;20019;-55
2022/04/10 06:49:35;;;;;;;43.58;31.48;;;26.60;79.10;;;;;;5145141;27;20039;-56
2022/04/10 06:52:02;;;;;;;36.20;30.50;;;26.50;79.20;;;;;;5145027;27;20042;-54
2022/04/10 06:54:29;;;;;;;;;;;26.50;79.30;;;;;;5145576;27;19903;-53
2022/04/10 06:56:55;;;;;;;;;;;26.50;79.30;;;;;;5145567;27;19944;-56
2022/04/10 06:59:21;;;;;;;;;;;26.50;79.70;;;;;;5145314;27;20081;-53
2022/04/10 07:01:47;;;;;;;;;;;26.50;79.90;;;;;;5145594;27;19899;-53
2022/04/10 07:04:14;;;;;;;57.67;47.60;;;26.50;80.20;;;;;;5145071;28;19907;-54
2022/04/10 07:06:46;;;;;;;106.38;86.45;;;26.50;80.30;;;;;;5144193;27;20202;-55
2022/04/10 07:09:14;;;;;;;112.35;97.07;;;26.40;80.20;;;;;;5145013;28;20015;-53
2022/04/10 07:11:41;;;;;;;94.45;80.40;;;26.40;80.30;;;;;;5144879;28;20023;-55
2022/04/10 07:14:08;;;;;;;128.00;104.30;;;26.40;80.20;;;;;;5144796;28;20023;-58
2022/04/10 07:16:34;;;;;;;94.32;83.63;;;26.40;80.20;;;;;;5144992;28;20264;-53
2022/04/10 07:19:01;;;;;;;77.28;63.67;;;26.40;80.10;;;;;;5144882;28;20084;-53
2022/04/10 07:24:12;;;;;;;114.78;96.90;;;26.40;79.80;;;;;;5144870;28;20038;-54
2022/04/10 07:26:39;;;;;;;111.47;93.18;;;26.40;79.90;;;;;;5144740;28;20054;-54
2022/04/10 07:29:06;;;;;;;93.78;78.95;;;26.40;80.00;;;;;;5144745;28;20057;-52
2022/04/10 07:31:32;;;;;;;69.20;61.03;;;26.40;80.00;;;;;;5144615;28;20094;-55
2022/04/10 07:33:59;;;;;;;61.42;49.78;;;26.30;79.80;;;;;;5144593;28;20361;-54
2022/04/10 07:36:26;;;;;;;45.17;36.40;;;26.40;80.00;;;;;;5144543;28;20394;-56
2022/04/10 07:38:52;;;;;;;41.05;31.38;;;26.40;80.10;;;;;;5144587;28;20315;-55
2022/04/10 07:41:22;;;;;;;35.45;28.83;;;26.40;80.30;;;;;;5144610;28;20047;-54
2022/04/10 07:43:48;;;;;;;35.70;28.55;;;26.30;80.30;;;;;;5144534;28;20031;-54
2022/04/10 07:49:00;;;;;;;28.98;25.55;;;26.30;80.30;;;;;;5144702;28;20026;-56
2022/04/10 07:51:26;;;;;;;31.67;25.77;;;26.30;80.40;;;;;;5144326;28;20047;-53
2022/04/10 07:53:57;;;;;;;30.02;23.70;;;26.30;80.30;;;;;;5144474;28;20023;-56
2022/04/10 07:56:24;;;;;;;25.95;21.25;;;26.30;80.50;;;;;;5144410;27;20015;-56
2022/04/10 07:58:50;;;;;;;28.75;21.10;;;26.30;80.50;;;;;;5144346;28;20076;-53
2022/04/10 08:01:17;;;;;;;29.15;19.38;;;26.30;80.40;;;;;;5144127;28;20018;-56
2022/04/10 08:03:46;;;;;;;25.50;19.42;;;26.30;80.40;;;;;;5144480;28;20024;-53
2022/04/10 08:06:12;;;;;;;24.77;17.48;;;26.30;80.40;;;;;;5144475;28;20035;-56
2022/04/10 08:08:39;;;;;;;25.92;17.58;;;26.30;80.30;;;;;;5144231;28;20023;-54
2022/04/10 08:11:07;;;;;;;18.92;16.20;;;26.30;80.00;;;;;;5144453;28;20038;-51
2022/04/10 08:13:33;;;;;;;30.35;19.50;;;26.30;80.10;;;;;;5144920;28;20039;-53
2022/04/10 08:16:01;;;;;;;49.55;30.35;;;26.30;80.10;;;;;;5144124;28;20042;-54
2022/04/10 08:18:28;;;;;;;60.13;45.15;;;26.30;80.10;;;;;;5146758;27;20191;-57
2022/04/10 08:20:54;;;;;;;71.03;58.05;;;26.30;80.00;;;;;;5147918;27;20062;-53
2022/04/10 08:23:21;;;;;;;85.90;76.38;;;26.30;80.10;;;;;;5148381;27;20018;-52
2022/04/10 08:25:47;;;;;;;90.35;80.43;;;26.30;80.10;;;;;;5147879;27;20027;-52
2022/04/10 08:28:14;;;;;;;103.45;92.72;;;26.30;79.90;;;;;;5148225;27;20027;-52
2022/04/10 08:30:41;;;;;;;86.90;78.18;;;26.30;79.80;;;;;;5147766;27;20017;-53
2022/04/10 08:33:10;;;;;;;81.43;73.45;;;26.30;79.70;;;;;;5148232;27;20015;-53
2022/04/10 08:35:37;;;;;;;69.13;62.00;;;26.30;79.80;;;;;;5147675;27;20339;-56
2022/04/10 08:38:03;;;;;;;56.05;49.78;;;26.20;79.80;;;;;;5147849;27;20027;-52
2022/04/10 08:40:32;;;;;;;50.53;39.58;;;26.30;80.00;;;;;;5147702;27;20219;-54
2022/04/10 08:43:02;;;;;;;36.38;30.65;;;26.20;79.90;;;;;;5147828;27;20034;-52
2022/04/10 08:45:29;;;;;;;28.80;25.70;;;26.30;80.00;;;;;;5147346;27;20019;-55
2022/04/10 08:47:56;;;;;;;27.95;24.90;;;26.20;79.70;;;;;;5147752;27;20031;-51
2022/04/10 08:50:24;;;;;;;24.15;21.65;;;26.20;80.00;;;;;;5147593;27;20338;-50
2022/04/10 08:52:55;;;;;;;23.23;20.88;;;26.20;80.10;;;;;;5147020;27;20050;-53
2022/04/10 08:55:22;;;;;;;24.85;19.02;;;26.20;80.10;;;;;;5147471;27;20271;-52
2022/04/10 08:57:48;;;;;;;20.98;17.10;;;26.20;79.90;;;;;;5147055;27;20054;-51
2022/04/10 09:00:17;;;;;;;21.13;16.65;;;26.20;80.00;;;;;;5146987;27;20053;-52
2022/04/10 09:02:48;;;;;;;19.00;16.75;;;26.20;80.00;;;;;;5147420;27;20019;-53
2022/04/10 09:05:20;;;;;;;20.95;15.95;;;26.20;79.90;;;;;;5147288;27;20046;-53
2022/04/10 09:08:08;;;;;;;20.73;15.27;;;26.10;79.70;;;;;;5147074;27;20030;-54
2022/04/10 09:10:57;;;;;;;21.85;15.15;;;26.20;79.50;;;;;;5146996;27;20062;-55
2022/04/10 09:13:28;;;;;;;19.13;14.70;;;26.10;79.30;;;;;;5147288;27;20195;-52
2022/04/10 09:16:07;;;;;;;21.80;14.80;;;26.20;79.40;;;;;;5146778;27;20027;-52
2022/04/10 09:19:00;;;;;;;24.10;14.70;;;26.10;79.00;;;;;;5147167;27;20033;-52
2022/04/10 09:21:34;;;;;;;16.38;13.77;;;26.10;79.10;;;;;;5146497;27;20038;-56
2022/04/10 09:24:04;;;;;;;19.10;14.30;;;26.10;79.10;;;;;;5146758;27;20023;-52
2022/04/10 09:26:46;;;;;;;23.65;14.43;;;26.10;79.00;;;;;;5146477;27;20256;-54
2022/04/10 09:29:15;;;;;;;17.50;13.52;;;26.10;78.80;;;;;;5146070;27;20049;-52
2022/04/10 09:31:43;;;;;;;17.95;13.38;;;26.20;79.00;;;;;;5146617;27;20064;-53
2022/04/10 09:34:11;;;;;;;20.02;13.98;;;26.20;78.90;;;;;;5146618;27;20370;-54
2022/04/10 09:36:43;;;;;;;20.45;13.60;;;26.20;78.70;;;;;;5146467;27;20050;-56
2022/04/10 09:39:14;;;;;;;17.15;13.35;;;26.20;78.60;;;;;;5146338;27;20050;-57
2022/04/10 09:41:42;;;;;;;18.27;14.10;;;26.20;78.60;;;;;;5146416;27;20029;-55
2022/04/10 09:44:22;;;;;;;20.00;13.65;;;26.20;78.80;;;;;;5146239;27;20373;-56
2022/04/10 09:47:05;;;;;;;19.90;13.88;;;26.10;78.60;;;;;;5146351;27;20022;-52
2022/04/10 09:49:32;;;;;;;;;;;26.20;78.80;;;;;;5146563;27;20034;-55
2022/04/10 09:52:14;;;;;;;17.90;13.52;;;26.20;78.80;;;;;;5145918;27;19911;-51
2022/04/10 09:54:40;;;;;;;17.95;12.88;;;26.20;78.60;;;;;;5146193;27;20031;-53
2022/04/10 09:57:16;;;;;;;19.30;13.35;;;26.10;78.50;;;;;;5145988;27;20023;-53
2022/04/10 09:59:52;;;;;;;21.80;13.45;;;26.10;78.60;;;;;;5145926;27;20034;-52
2022/04/10 10:02:21;;;;;;;19.00;13.27;;;26.10;78.70;;;;;;5146066;27;20019;-53
2022/04/10 10:04:49;;;;;;;18.02;13.48;;;26.10;78.90;;;;;;5146057;27;20039;-54
2022/04/10 10:07:20;;;;;;;20.70;13.50;;;26.10;79.00;;;;;;5145966;27;20027;-50
2022/04/10 10:09:49;;;;;;;19.65;14.05;;;26.10;79.20;;;;;;5145739;27;20035;-53
2022/04/10 10:12:16;;;;;;;17.80;13.98;;;26.10;79.30;;;;;;5145948;27;20026;-55
2022/04/10 10:14:44;;;;;;;21.85;13.75;;;26.10;79.50;;;;;;5145841;27;20026;-54
2022/04/10 10:17:11;;;;;;;16.45;14.10;;;26.10;79.50;;;;;;5146042;27;20027;-51
2022/04/10 10:19:41;;;;;;;15.98;13.43;;;26.00;79.50;;;;;;5145682;27;20082;-52
2022/04/10 10:22:10;;;;;;;20.38;14.25;;;26.10;79.50;;;;;;5145992;27;20019;-53
2022/04/10 10:24:52;;;;;;;20.02;14.00;;;26.00;79.40;;;;;;5145450;27;20343;-54
2022/04/10 10:27:38;;;;;;;23.80;14.48;;;26.00;79.40;;;;;;5145708;27;20027;-54
2022/04/10 10:30:24;;;;;;;23.30;14.90;;;26.00;79.70;;;;;;5145373;27;20099;-51
2022/04/10 10:32:56;;;;;;;26.27;14.75;;;26.00;79.90;;;;;;5145620;27;20078;-51
2022/04/10 10:35:43;;;;;;;21.20;14.20;;;26.00;80.20;;;;;;5127140;27;20219;-51
2022/04/10 10:38:30;;;;;;;18.35;13.95;;;26.00;80.30;;;;;;5145262;27;20068;-56
2022/04/10 10:41:29;;;;;;;20.42;14.15;;;26.00;80.40;;;;;;5144413;27;20204;-52
2022/04/10 10:43:56;;;;;;;17.30;14.00;;;26.00;80.20;;;;;;5090053;27;20048;-53
2022/04/10 10:46:26;;;;;;;23.40;13.40;;;26.00;80.40;;;;;;5145171;27;20311;-54
2022/04/10 10:49:16;;;;;;;21.25;13.98;;;26.00;80.30;;;;;;5144931;27;20027;-52
2022/04/10 10:51:48;;;;;;;23.38;13.73;;;26.00;79.90;;;;;;5132635;27;20047;-52
2022/04/10 10:54:29;;;;;;;19.67;14.23;;;26.00;80.00;;;;;;5145163;27;20015;-52
2022/04/10 10:56:56;;;;;;;17.48;12.93;;;26.00;79.80;;;;;;5145112;27;20031;-52
2022/04/10 10:59:33;;;;;;;22.42;13.20;;;26.00;79.80;;;;;;5144795;27;20094;-53
2022/04/10 11:02:13;;;;;;;21.08;13.30;;;26.00;79.50;;;;;;5145095;27;20241;-51
2022/04/10 11:04:42;;;;;;;17.60;13.40;;;26.00;79.70;;;;;;5145114;28;20338;-53
2022/04/10 11:07:24;;;;;;;20.05;14.07;;;26.00;79.80;;;;;;5145071;28;20339;-51
2022/04/10 11:09:58;;;;;;;17.53;13.70;;;26.00;79.80;;;;;;5141219;28;20222;-52
2022/04/10 11:12:41;;;;;;;17.95;14.20;;;26.00;79.70;;;;;;5134901;28;20588;-52
2022/04/10 11:15:31;;;;;;;17.10;13.57;;;26.00;79.60;;;;;;5138434;28;20031;-54
2022/04/10 11:18:23;;;;;;;19.63;13.65;;;26.00;79.50;;;;;;5145190;28;20106;-52
2022/04/10 11:21:05;;;;;;;25.92;14.48;;;26.00;79.70;;;;;;5093269;28;20034;-53
2022/04/10 11:23:41;;;;;;;25.33;13.73;;;26.00;79.50;;;;;;5144487;28;20099;-52
2022/04/10 11:26:16;;;;;;;22.10;14.65;;;26.00;79.60;;;;;;5144740;28;20361;-52
2022/04/10 11:29:01;;;;;;;23.05;14.32;;;26.00;79.60;;;;;;5144822;28;20039;-53
2022/04/10 11:31:48;;;;;;;18.40;14.65;;;26.00;79.50;;;;;;5132395;28;20019;-55
2022/04/10 11:34:19;;;;;;;19.98;15.02;;;26.00;79.50;;;;;;5124066;28;20035;-52
2022/04/10 11:36:52;;;;;;;22.40;15.77;;;26.10;79.60;;;;;;5124101;28;20034;-54
2022/04/10 11:39:32;;;;;;;23.48;15.48;;;26.10;79.80;;;;;;5123735;28;20031;-53
2022/04/10 11:42:00;;;;;;;21.08;15.32;;;26.10;79.90;;;;;;5124317;28;20087;-52
2022/04/10 11:44:29;;;;;;;21.30;14.98;;;26.10;80.00;;;;;;5123765;28;20031;-52
2022/04/10 11:46:55;;;;;;;19.13;14.85;;;26.10;80.00;;;;;;5123933;28;20095;-53
2022/04/10 11:49:22;;;;;;;21.23;15.15;;;26.10;80.10;;;;;;5123941;28;20022;-53
2022/04/10 11:51:53;;;;;;;23.33;14.48;;;26.10;80.20;;;;;;5124814;28;20050;-52
2022/04/10 11:54:35;;;;;;;20.65;14.82;;;26.20;80.30;;;;;;5127789;28;20031;-54
2022/04/10 11:57:04;;;;;;;24.55;15.68;;;26.10;80.20;;;;;;5127902;28;20034;-54
2022/04/10 11:59:36;;;;;;;21.80;15.70;;;26.20;80.30;;;;;;5127854;28;20031;-54
2022/04/10 12:02:03;;;;;;;;;;;26.20;80.40;;;;;;5131099;27;20043;-51
2022/04/10 12:04:32;;;;;;;18.33;15.82;;;26.20;80.30;;;;;;5132665;27;20017;-56
2022/04/10 12:07:13;;;;;;;25.50;15.82;;;26.20;80.70;;;;;;5127425;28;20026;-52
2022/04/10 12:09:41;;;;;;;25.40;16.42;;;26.20;80.70;;;;;;5127787;28;20055;-59
2022/04/10 12:12:08;;;;;;;21.92;15.88;;;26.20;80.90;;;;;;5127599;28;20091;-48
2022/04/10 12:14:35;;;;;;;20.05;15.73;;;26.30;81.10;;;;;;5127768;28;20023;-53
2022/04/10 12:17:02;;;;;;;27.27;16.13;;;26.30;81.10;;;;;;5127595;27;20332;-51
2022/04/10 12:19:34;;;;;;;21.73;15.75;;;26.30;81.20;;;;;;5133602;27;20099;-54
2022/04/10 12:22:09;;;;;;;21.38;15.30;;;26.30;81.40;;;;;;5128834;27;20023;-55
2022/04/10 12:24:37;;;;;;;26.52;15.73;;;26.30;81.40;;;;;;5133935;27;20040;-60
2022/04/10 12:27:09;;;;;;;25.02;16.02;;;26.30;81.60;;;;;;5127425;27;20184;-53
2022/04/10 12:29:37;;;;;;;26.35;15.90;;;26.30;81.70;;;;;;5127746;27;20032;-51
2022/04/10 12:32:07;;;;;;;24.88;16.23;;;26.30;81.90;;;;;;5130319;27;20020;-55
2022/04/10 12:34:35;;;;;;;23.45;16.23;;;26.30;82.10;;;;;;5127073;28;20331;-53
2022/04/10 12:37:10;;;;;;;20.08;14.85;;;26.40;82.30;;;;;;5127060;28;20303;-57
2022/04/10 12:39:37;;;;;;;20.33;15.23;;;26.40;82.20;;;;;;5126988;28;20320;-55
2022/04/10 12:42:10;;;;;;;25.08;15.13;;;26.40;82.30;;;;;;5126830;28;20068;-52
2022/04/10 12:44:41;;;;;;;23.63;15.70;;;26.40;82.60;;;;;;5126836;28;20035;-53
2022/04/10 12:47:09;;;;;;;23.42;15.60;;;26.40;82.80;;;;;;5127051;28;20030;-52
2022/04/10 12:49:39;;;;;;;19.63;15.63;;;26.40;82.90;;;;;;5129736;27;20035;-54
2022/04/10 12:52:09;;;;;;;27.48;17.20;;;26.40;82.80;;;;;;5134811;27;20060;-54
2022/04/10 12:54:43;;;;;;;27.27;16.65;;;26.40;82.90;;;;;;5134651;27;20019;-50